Machala, Ecuador

7:59 PM ECT on September 03, 2015 (GMT -0500)
Machala, El Oro, Ecuador | | Change Station
CLOSE
Current Station
Personal Weather Station
Location: El Cambio, EL ORO
Elevation: 20 ft
Nearby Weather Stations

Elev 20 ft 3.30 °S, 79.90 °W | Updated 8 minutes ago

Mostly Cloudy
Mostly Cloudy
75.7 °F
Feels Like 75 °F
N
0.0
Wind Variable Wind from West
Gusts 2.0 mph

Today
High -- | Low -- °F
--% Chance of Precip.
Yesterday
High -- | Low -- °F
Precip. -- in
6:17 AM 6:20 PM
Waning Gibbous, 65% visible
Pressure 29.86 in
Visibility 6.2 miles
Clouds Mostly Cloudy 1500 ft
Heat Index 75 °F
Dew Point 73 °F
Humidity 91%
Rainfall 0.00 in
Snow Depth Not available.
UV 0.0 out of 12
Pollen Not available.
Air Quality Not available.
Flu Activity Not available.
METAR SPME 040000Z 24004KT 9999 BKN015 24/21 Q1011 RMK BIRD HAZARD RWY 32/14 PP000
Pressure 29.86 in
Visibility 6.2 miles
Clouds Mostly Cloudy 1500 ft
Heat Index 75 °F
Dew Point 73 °F
Humidity 91%
Rainfall 0.00 in
Snow Depth Not available.
UV 0.0 out of 12
Pollen Not available.
Air Quality Not available.
Flu Activity Not available.
METAR SPME 040000Z 24004KT 9999 BKN015 24/21 Q1011 RMK BIRD HAZARD RWY 32/14 PP000

10-Day Weather Forecast

×

Almanac

Astronomy

Sep. 03, 2015 Rise Set
Actual Time
Civil Twilight
Nautical Twilight
Astronomical Twilight
Moon
Length of Visible Light
Length of Day
Tomorrow will be .
, % of the Moon is Illuminated

Today's Extremes

Country Highs Country Lows

Community

WunderPhotos

Upload Photos

1,852,075 photos uploaded!

WunderBlogs® & News

Nearby

Air Quality

  Air Quality AQ Index Pollutant
Not available.

Snow Depth

Station Depth Elevation

Earthquake Activity

City Distance Mag. Time & Date
Minimum magnitude displayed is 2.5.

Coastal Water Temperatures

Place Temperature

Stations

Nearby Weather Stations

Station Location Temp. Windchill Dew Point Humidity Wind Precip. Elev Updated Type